Time;durP1;ratioP1;P1;durP2;ratioP2;P2;SDS_P1;SDS_P2;PMS_P1;PMS_P2;Temp;Humidity;BMP_temperature;BMP_pressure;BME280_temperature;BME280_humidity;BME280_pressure;Samples;Min_cycle;Max_cycle;Signal;HPM_P1;HPM_P2
2021/09/17 00:00:06;;;;;;;11.07;5.90;;;18.30;81.20;;;;;;5073586;28;20036;-72
2021/09/17 00:02:38;;;;;;;9.48;5.13;;;18.20;81.30;;;;;;5092985;28;20125;-72
2021/09/17 00:05:05;;;;;;;9.02;5.78;;;18.20;81.30;;;;;;5079752;28;20491;-72
2021/09/17 00:07:30;;;;;;;10.63;5.78;;;18.20;81.50;;;;;;5091382;28;20032;-72
2021/09/17 00:09:56;;;;;;;14.35;5.72;;;18.10;81.50;;;;;;5093649;28;20416;-72
2021/09/17 00:12:22;;;;;;;9.40;5.55;;;18.10;81.60;;;;;;5088235;28;20497;-72
2021/09/17 00:14:49;;;;;;;14.95;6.35;;;18.10;81.60;;;;;;5082196;28;20421;-72
2021/09/17 00:17:14;;;;;;;10.75;7.07;;;18.10;81.90;;;;;;5090783;28;20066;-72
2021/09/17 00:19:40;;;;;;;12.10;6.45;;;18.10;82.20;;;;;;5092227;28;20024;-72
2021/09/17 00:22:06;;;;;;;12.15;6.75;;;18.10;82.30;;;;;;5092035;28;20028;-72
2021/09/17 00:24:32;;;;;;;16.20;7.00;;;18.00;82.40;;;;;;5088159;28;20067;-72
2021/09/17 00:26:59;;;;;;;16.80;7.32;;;18.10;82.80;;;;;;5082238;28;20530;-72
2021/09/17 00:29:24;;;;;;;10.57;6.85;;;18.10;83.10;;;;;;5077099;28;20037;-72
2021/09/17 00:31:50;;;;;;;14.07;7.80;;;18.00;83.00;;;;;;5085354;28;20040;-72
2021/09/17 00:34:16;;;;;;;15.00;7.60;;;18.10;83.20;;;;;;5074024;28;20102;-72
2021/09/17 00:36:42;;;;;;;13.60;7.57;;;18.10;83.30;;;;;;5085397;28;20051;-72
2021/09/17 00:39:12;;;;;;;12.35;6.95;;;18.00;83.30;;;;;;5072933;28;20044;-72
2021/09/17 00:41:42;;;;;;;20.73;7.50;;;18.10;83.30;;;;;;5076604;28;20132;-72
2021/09/17 00:44:09;;;;;;;13.52;7.80;;;18.00;83.10;;;;;;5085278;28;20037;-72
2021/09/17 00:46:34;;;;;;;25.25;6.72;;;18.00;83.10;;;;;;5078374;28;20376;-72
2021/09/17 00:49:00;;;;;;;10.77;6.70;;;18.00;83.00;;;;;;5081069;28;20027;-72
2021/09/17 00:51:26;;;;;;;10.10;6.72;;;17.90;82.80;;;;;;5073600;28;20051;-72
2021/09/17 00:53:51;;;;;;;12.32;6.53;;;18.00;82.50;;;;;;5072976;28;20032;-72
2021/09/17 00:56:17;;;;;;;16.85;6.88;;;17.90;82.20;;;;;;5072855;28;20032;-72
2021/09/17 00:58:43;;;;;;;11.18;6.47;;;17.90;82.00;;;;;;5073101;28;20028;-72
2021/09/17 01:01:12;;;;;;;13.30;6.80;;;17.80;81.80;;;;;;5083746;28;20031;-72
2021/09/17 01:03:38;;;;;;;11.43;6.40;;;17.80;81.80;;;;;;5076225;28;20509;-72
2021/09/17 01:06:04;;;;;;;9.68;6.03;;;17.80;81.70;;;;;;5090730;28;20055;-72
2021/09/17 01:08:32;;;;;;;12.23;6.82;;;17.70;81.70;;;;;;5091438;28;20020;-72
2021/09/17 01:10:59;;;;;;;12.73;6.40;;;17.70;81.80;;;;;;5089761;28;20105;-72
2021/09/17 01:13:26;;;;;;;14.55;6.70;;;17.70;81.90;;;;;;5081201;28;20500;-72
2021/09/17 01:15:51;;;;;;;15.82;6.70;;;17.70;81.90;;;;;;5085745;28;20114;-72
2021/09/17 01:18:17;;;;;;;14.27;7.53;;;17.60;81.90;;;;;;5091073;28;20058;-72
2021/09/17 01:20:43;;;;;;;12.40;7.45;;;17.60;82.00;;;;;;5094213;28;20532;-72
2021/09/17 01:23:09;;;;;;;12.05;8.25;;;17.60;82.20;;;;;;5091920;28;20437;-72
2021/09/17 01:25:34;;;;;;;10.98;7.20;;;17.60;82.40;;;;;;5089855;28;20090;-72
2021/09/17 01:28:00;;;;;;;14.55;7.22;;;17.50;82.40;;;;;;5089393;28;20107;-72
2021/09/17 01:30:26;;;;;;;12.20;7.28;;;17.60;82.40;;;;;;5082157;28;20060;-72
2021/09/17 01:32:52;;;;;;;12.15;7.07;;;17.50;82.40;;;;;;5085985;28;20031;-72
2021/09/17 01:35:20;;;;;;;14.02;6.88;;;17.50;82.40;;;;;;5080006;28;20039;-72
2021/09/17 01:37:46;;;;;;;13.02;6.80;;;17.50;82.30;;;;;;5079345;28;20068;-72
2021/09/17 01:40:13;;;;;;;14.73;6.65;;;17.40;82.10;;;;;;5089997;28;20028;-72
2021/09/17 01:42:39;;;;;;;16.60;8.02;;;17.50;82.00;;;;;;5090868;28;20032;-72
2021/09/17 01:45:06;;;;;;;18.00;7.93;;;17.40;82.30;;;;;;5083152;28;20476;-72
2021/09/17 01:47:32;;;;;;;12.27;7.63;;;17.40;82.60;;;;;;5094731;28;20028;-72
2021/09/17 01:49:57;;;;;;;11.52;7.65;;;17.40;82.70;;;;;;5095904;28;20036;-72
2021/09/17 01:52:23;;;;;;;11.35;6.72;;;17.50;82.90;;;;;;5094832;28;20396;-72
2021/09/17 01:54:49;;;;;;;12.38;7.28;;;17.40;82.90;;;;;;5094076;28;20112;-72
2021/09/17 01:57:14;;;;;;;17.30;6.82;;;17.50;83.10;;;;;;5089820;28;20028;-72
2021/09/17 01:59:40;;;;;;;13.82;7.45;;;17.40;83.00;;;;;;5087982;28;20024;-72
2021/09/17 02:02:06;;;;;;;12.55;6.80;;;17.40;82.90;;;;;;5093611;28;20024;-72
2021/09/17 02:04:31;;;;;;;13.18;7.63;;;17.40;82.80;;;;;;5084434;28;20035;-72
2021/09/17 02:06:57;;;;;;;15.95;7.90;;;17.40;82.90;;;;;;5091090;28;20047;-72
2021/09/17 02:09:23;;;;;;;15.20;7.60;;;17.40;83.10;;;;;;5087003;28;20472;-72
2021/09/17 02:11:48;;;;;;;12.65;8.07;;;17.40;83.20;;;;;;5089799;28;20401;-72
2021/09/17 02:14:14;;;;;;;12.68;8.60;;;17.40;83.40;;;;;;5089923;28;20082;-72
2021/09/17 02:16:41;;;;;;;20.13;7.45;;;17.40;83.60;;;;;;5089566;28;20028;-72
2021/09/17 02:19:07;;;;;;;12.10;7.20;;;17.40;83.60;;;;;;5086110;28;20098;-72
2021/09/17 02:21:33;;;;;;;12.88;7.63;;;17.40;83.30;;;;;;5084724;28;20036;-72
2021/09/17 02:23:59;;;;;;;13.95;8.23;;;17.40;83.20;;;;;;5075026;28;20494;-72
2021/09/17 02:26:24;;;;;;;18.92;8.90;;;17.40;83.20;;;;;;5082490;28;20075;-72
2021/09/17 02:28:50;;;;;;;15.15;8.90;;;17.40;83.40;;;;;;5079286;28;20427;-72
2021/09/17 02:31:16;;;;;;;13.15;8.80;;;17.40;83.50;;;;;;5080579;28;20079;-72
2021/09/17 02:33:42;;;;;;;16.65;9.65;;;17.40;83.60;;;;;;5079158;28;20027;-72
2021/09/17 02:36:08;;;;;;;16.40;8.93;;;17.40;84.40;;;;;;5076609;28;20456;-72
2021/09/17 02:38:34;;;;;;;14.00;8.80;;;17.30;83.90;;;;;;5076562;28;20070;-72
2021/09/17 02:41:00;;;;;;;13.65;9.23;;;17.30;84.10;;;;;;5078630;28;20111;-72
2021/09/17 02:43:25;;;;;;;15.32;9.95;;;17.40;84.50;;;;;;5084068;28;20108;-71
2021/09/17 02:45:51;;;;;;;14.68;9.45;;;17.40;84.60;;;;;;5082663;28;20115;-72
2021/09/17 02:48:17;;;;;;;12.48;8.65;;;17.40;84.70;;;;;;5077072;28;20030;-72
2021/09/17 02:50:42;;;;;;;13.13;8.32;;;17.40;84.60;;;;;;5077280;28;20043;-72
2021/09/17 02:53:08;;;;;;;15.70;8.25;;;17.40;84.50;;;;;;5076591;28;20025;-72
2021/09/17 02:55:34;;;;;;;13.68;9.30;;;17.40;84.20;;;;;;5077614;28;20098;-72
2021/09/17 02:58:03;;;;;;;15.90;9.18;;;17.40;84.10;;;;;;5077218;28;20115;-72
2021/09/17 03:00:30;;;;;;;18.58;10.55;;;17.40;84.00;;;;;;5081164;28;20098;-73
2021/09/17 03:02:57;;;;;;;17.63;11.18;;;17.30;84.20;;;;;;5076055;28;20020;-73
2021/09/17 03:05:22;;;;;;;21.25;10.35;;;17.30;84.70;;;;;;5076662;28;20124;-73
2021/09/17 03:07:48;;;;;;;18.33;10.98;;;17.30;85.10;;;;;;5075303;28;20120;-72
2021/09/17 03:10:14;;;;;;;20.63;9.80;;;17.40;85.60;;;;;;5083120;28;20028;-73
2021/09/17 03:12:40;;;;;;;16.63;10.15;;;17.50;85.80;;;;;;5081263;28;20028;-72
2021/09/17 03:15:06;;;;;;;17.95;10.52;;;17.40;85.80;;;;;;5076601;28;20021;-72
2021/09/17 03:17:32;;;;;;;23.35;11.32;;;17.40;86.00;;;;;;5079617;28;20028;-72
2021/09/17 03:19:58;;;;;;;14.98;9.98;;;17.40;86.20;;;;;;5086464;28;20164;-73
2021/09/17 03:22:23;;;;;;;15.82;11.00;;;17.50;86.30;;;;;;5085086;28;20523;-72
2021/09/17 03:24:49;;;;;;;21.75;9.90;;;17.50;86.20;;;;;;5081112;28;20028;-73
2021/09/17 03:27:15;;;;;;;17.20;10.98;;;17.50;86.20;;;;;;5087239;28;20038;-72
2021/09/17 03:29:41;;;;;;;15.70;10.20;;;17.50;86.50;;;;;;5076334;28;20025;-72
2021/09/17 03:32:07;;;;;;;16.42;10.10;;;17.50;86.60;;;;;;5083158;28;20085;-72
2021/09/17 03:34:32;;;;;;;16.67;10.27;;;17.50;86.60;;;;;;5089814;28;20066;-72
2021/09/17 03:36:58;;;;;;;14.30;9.70;;;17.50;86.60;;;;;;5089588;28;20078;-72
2021/09/17 03:39:23;;;;;;;19.42;10.15;;;17.40;86.30;;;;;;5082254;28;20077;-72
2021/09/17 03:41:49;;;;;;;16.98;9.43;;;17.50;86.30;;;;;;5077146;28;20036;-73
2021/09/17 03:44:16;;;;;;;16.58;10.20;;;17.40;86.10;;;;;;5074754;28;20078;-73
2021/09/17 03:46:42;;;;;;;17.70;10.63;;;17.40;85.90;;;;;;5078468;28;20040;-72
2021/09/17 03:49:08;;;;;;;17.20;10.00;;;17.40;86.20;;;;;;5084592;28;20024;-73
2021/09/17 03:51:34;;;;;;;17.70;10.05;;;17.40;86.50;;;;;;5091114;28;20059;-72
2021/09/17 03:53:59;;;;;;;16.73;10.27;;;17.40;86.70;;;;;;5080125;28;20059;-73
2021/09/17 03:56:25;;;;;;;19.02;10.90;;;17.40;86.70;;;;;;5092639;28;20024;-73
2021/09/17 03:58:51;;;;;;;23.15;11.05;;;17.40;86.90;;;;;;5087616;28;20127;-73
2021/09/17 04:01:16;;;;;;;17.88;11.02;;;17.40;87.00;;;;;;5082842;28;20036;-72
2021/09/17 04:03:42;;;;;;;19.48;10.40;;;17.50;87.10;;;;;;5088331;28;20441;-73
2021/09/17 04:06:08;;;;;;;20.70;10.52;;;17.40;86.90;;;;;;5086490;28;20043;-72
2021/09/17 04:08:34;;;;;;;19.98;10.95;;;17.40;86.70;;;;;;5086464;28;20131;-73
2021/09/17 04:10:59;;;;;;;15.73;10.45;;;17.40;86.80;;;;;;5079947;28;20542;-73
2021/09/17 04:13:25;;;;;;;15.75;10.52;;;17.40;87.00;;;;;;5085209;28;20047;-73
2021/09/17 04:15:50;;;;;;;16.77;11.35;;;17.40;86.80;;;;;;5085291;28;20386;-72
2021/09/17 04:18:16;;;;;;;16.35;10.98;;;17.40;86.80;;;;;;5076189;28;20029;-73
2021/09/17 04:20:42;;;;;;;21.40;12.05;;;17.40;86.80;;;;;;5077939;28;20131;-72
2021/09/17 04:23:07;;;;;;;16.08;11.60;;;17.40;87.00;;;;;;5082686;28;20046;-73
2021/09/17 04:25:33;;;;;;;15.45;10.77;;;17.30;87.00;;;;;;5085559;28;20438;-73
2021/09/17 04:27:59;;;;;;;18.88;11.60;;;17.40;87.00;;;;;;5089802;28;20032;-72
2021/09/17 04:30:25;;;;;;;19.13;10.80;;;17.40;87.10;;;;;;5080143;28;20039;-72
2021/09/17 04:32:51;;;;;;;17.50;11.40;;;17.40;87.20;;;;;;5081917;28;20398;-72
2021/09/17 04:35:17;;;;;;;20.48;12.07;;;17.40;87.30;;;;;;5080985;28;20032;-72
2021/09/17 04:37:45;;;;;;;19.02;10.90;;;17.40;87.30;;;;;;5078963;28;20053;-72
2021/09/17 04:40:13;;;;;;;26.48;10.80;;;17.30;87.30;;;;;;5078792;28;20036;-72
2021/09/17 04:42:39;;;;;;;17.58;12.27;;;17.30;87.30;;;;;;5079878;28;20103;-72
2021/09/17 04:45:06;;;;;;;23.52;12.27;;;17.30;87.40;;;;;;5083907;28;20035;-72
2021/09/17 04:47:32;;;;;;;20.80;11.38;;;17.30;88.30;;;;;;5089957;28;20106;-73
2021/09/17 04:49:59;;;;;;;16.95;11.88;;;17.40;87.90;;;;;;5076050;28;20107;-72
2021/09/17 04:52:24;;;;;;;18.95;12.75;;;17.40;88.10;;;;;;5077195;28;20029;-73
2021/09/17 04:54:51;;;;;;;19.05;12.57;;;17.40;88.20;;;;;;5087361;28;20047;-73
2021/09/17 04:57:17;;;;;;;16.48;11.98;;;17.40;88.40;;;;;;5076073;28;20028;-72
2021/09/17 04:59:43;;;;;;;19.63;11.73;;;17.40;88.50;;;;;;5090809;28;20047;-72
2021/09/17 05:02:08;;;;;;;17.52;11.98;;;17.40;88.70;;;;;;5077216;28;20115;-73
2021/09/17 05:04:34;;;;;;;21.35;11.10;;;17.40;88.70;;;;;;5078007;28;20033;-73
2021/09/17 05:07:00;;;;;;;16.50;11.20;;;17.40;88.50;;;;;;5078133;28;20083;-72
2021/09/17 05:09:26;;;;;;;16.83;11.90;;;17.40;88.10;;;;;;5078007;28;20032;-72
2021/09/17 05:11:52;;;;;;;18.95;12.85;;;17.40;87.90;;;;;;5082680;28;20043;-77
2021/09/17 05:14:17;;;;;;;21.58;12.10;;;17.40;88.20;;;;;;5081243;28;20016;-76
2021/09/17 05:16:45;;;;;;;21.25;12.60;;;17.40;88.50;;;;;;5082251;28;20039;-76
2021/09/17 05:19:14;;;;;;;17.05;12.23;;;17.40;88.50;;;;;;5085873;28;20051;-80
2021/09/17 05:21:40;;;;;;;18.90;12.40;;;17.40;88.50;;;;;;5093518;28;20039;-76
2021/09/17 05:24:06;;;;;;;19.33;11.98;;;17.40;88.40;;;;;;5085197;28;20028;-75
2021/09/17 05:26:31;;;;;;;18.02;11.90;;;17.40;88.60;;;;;;5081406;28;20094;-73
2021/09/17 05:28:57;;;;;;;18.27;12.23;;;17.40;88.60;;;;;;5088488;28;20031;-73
2021/09/17 05:31:23;;;;;;;19.83;11.82;;;17.40;88.30;;;;;;5093668;28;20024;-74
2021/09/17 05:33:48;;;;;;;18.73;11.35;;;17.40;88.30;;;;;;5084215;28;20426;-73
2021/09/17 05:36:14;;;;;;;19.63;11.65;;;17.40;88.70;;;;;;5082984;28;20134;-73
2021/09/17 05:38:40;;;;;;;19.25;11.40;;;17.30;88.10;;;;;;5082747;28;20483;-73
2021/09/17 05:41:06;;;;;;;19.90;12.32;;;17.30;88.20;;;;;;5078947;28;20065;-75
2021/09/17 05:43:31;;;;;;;21.77;12.05;;;17.30;88.40;;;;;;5082289;28;20039;-76
2021/09/17 05:45:57;;;;;;;17.77;12.57;;;17.30;88.40;;;;;;5080569;28;20140;-75
2021/09/17 05:48:23;;;;;;;17.73;12.23;;;17.30;88.50;;;;;;5090873;28;20051;-74
2021/09/17 05:50:50;;;;;;;19.25;12.25;;;17.30;88.90;;;;;;5085879;28;20093;-74
2021/09/17 05:53:17;;;;;;;20.98;13.27;;;17.40;89.10;;;;;;5080696;28;20040;-74
2021/09/17 05:55:43;;;;;;;19.83;12.43;;;17.40;89.30;;;;;;5082000;28;20039;-75
2021/09/17 05:58:08;;;;;;;21.27;12.43;;;17.40;89.30;;;;;;5077160;28;20028;-74
2021/09/17 06:00:35;;;;;;;17.23;12.25;;;17.40;89.10;;;;;;5079148;28;20058;-75
2021/09/17 06:03:01;;;;;;;18.55;12.35;;;17.40;89.10;;;;;;5085981;28;20039;-75
2021/09/17 06:05:27;;;;;;;23.48;12.20;;;17.40;89.30;;;;;;5086638;28;20028;-75
2021/09/17 06:07:53;;;;;;;19.30;12.07;;;17.40;89.40;;;;;;5091583;28;20081;-75
2021/09/17 06:10:19;;;;;;;28.50;12.57;;;17.40;89.40;;;;;;5088790;28;20039;-75
2021/09/17 06:12:45;;;;;;;23.15;11.77;;;17.40;89.50;;;;;;5079951;28;20025;-79
2021/09/17 06:15:13;;;;;;;19.10;13.18;;;17.40;89.50;;;;;;5083635;28;20036;-77
2021/09/17 06:17:40;;;;;;;20.00;12.45;;;17.40;89.90;;;;;;5083605;28;20032;-78
2021/09/17 06:20:07;;;;;;;22.67;12.80;;;17.40;90.00;;;;;;5082610;28;20059;-77
2021/09/17 06:22:33;;;;;;;18.30;12.82;;;17.40;90.00;;;;;;5088490;28;20035;-80
2021/09/17 06:24:58;;;;;;;19.55;13.20;;;17.50;90.00;;;;;;5080283;28;20036;-74
2021/09/17 06:27:24;;;;;;;18.00;12.68;;;17.50;90.10;;;;;;5082667;28;20027;-74
2021/09/17 06:29:49;;;;;;;18.58;12.98;;;17.50;90.10;;;;;;5091551;28;20031;-74
2021/09/17 06:32:15;;;;;;;21.40;11.77;;;17.50;90.10;;;;;;5090619;28;20028;-76
2021/09/17 06:34:41;;;;;;;18.25;11.48;;;17.50;90.10;;;;;;5084341;28;20039;-75
2021/09/17 06:37:09;;;;;;;18.02;12.15;;;17.60;90.00;;;;;;5084071;28;20064;-75
2021/09/17 06:39:35;;;;;;;16.63;12.60;;;17.50;89.80;;;;;;5082588;28;20119;-75
2021/09/17 06:42:00;;;;;;;18.92;11.75;;;17.50;89.70;;;;;;5075733;28;20119;-75
2021/09/17 06:44:29;;;;;;;18.98;12.25;;;17.50;89.50;;;;;;5090492;28;20028;-75
2021/09/17 06:46:55;;;;;;;20.40;11.75;;;17.50;89.60;;;;;;5074008;28;20033;-75
2021/09/17 06:49:21;;;;;;;20.02;12.07;;;17.50;89.50;;;;;;5076255;28;20025;-75
2021/09/17 06:51:47;;;;;;;18.88;12.00;;;17.50;89.70;;;;;;5074843;28;20094;-75
2021/09/17 06:54:12;;;;;;;22.90;11.82;;;17.50;89.40;;;;;;5084321;28;20032;-75
2021/09/17 06:56:38;;;;;;;18.35;11.45;;;17.50;89.00;;;;;;5085143;28;20071;-75
2021/09/17 06:59:03;;;;;;;16.13;11.00;;;17.50;88.60;;;;;;5080588;28;20288;-75
2021/09/17 07:01:29;;;;;;;16.23;10.75;;;17.50;88.50;;;;;;5084922;28;20028;-77
2021/09/17 07:03:55;;;;;;;18.52;11.65;;;17.50;88.60;;;;;;5083579;28;20020;-77
2021/09/17 07:06:21;;;;;;;15.90;10.32;;;17.50;88.70;;;;;;5078607;28;20036;-78
2021/09/17 07:08:46;;;;;;;24.60;11.85;;;17.50;88.30;;;;;;5079046;28;20039;-77
2021/09/17 07:11:12;;;;;;;16.35;11.10;;;17.50;88.30;;;;;;5081036;28;20107;-77
2021/09/17 07:13:37;;;;;;;19.58;11.27;;;17.50;88.30;;;;;;5079753;28;20035;-78
2021/09/17 07:16:03;;;;;;;13.68;9.75;;;17.50;88.20;;;;;;5077830;28;20020;-79
2021/09/17 07:18:29;;;;;;;16.55;11.05;;;17.50;88.30;;;;;;5077878;28;20028;-78
2021/09/17 07:20:55;;;;;;;19.20;10.77;;;17.50;88.40;;;;;;5076720;28;20405;-78
2021/09/17 07:23:20;;;;;;;17.88;9.77;;;17.50;88.00;;;;;;5081153;28;20043;-78
2021/09/17 07:25:46;;;;;;;15.70;9.35;;;17.60;88.00;;;;;;5083928;28;20471;-79
2021/09/17 07:28:13;;;;;;;19.83;9.98;;;17.50;87.60;;;;;;5080161;28;20024;-80
2021/09/17 07:30:39;;;;;;;21.92;11.30;;;17.50;87.50;;;;;;5073060;28;20487;-73
2021/09/17 07:33:05;;;;;;;16.80;11.40;;;17.50;88.10;;;;;;5086146;28;20089;-73
2021/09/17 07:35:31;;;;;;;17.58;10.85;;;17.60;88.80;;;;;;5081478;28;20125;-73
2021/09/17 07:37:57;;;;;;;18.90;11.40;;;17.60;88.90;;;;;;5078295;28;20048;-73
2021/09/17 07:40:24;;;;;;;22.95;12.25;;;17.60;89.40;;;;;;5077754;28;20028;-73
2021/09/17 07:42:50;;;;;;;22.65;11.75;;;17.60;89.60;;;;;;5082623;28;20478;-74
2021/09/17 07:45:17;;;;;;;20.60;12.55;;;17.70;90.00;;;;;;5085333;28;20047;-73
2021/09/17 07:47:44;;;;;;;19.27;13.13;;;17.80;90.30;;;;;;5078966;28;20433;-73
2021/09/17 07:50:11;;;;;;;21.13;13.73;;;17.90;90.60;;;;;;5086299;28;20036;-73
2021/09/17 07:52:37;;;;;;;22.08;12.70;;;17.90;90.90;;;;;;5079626;28;20022;-73
2021/09/17 07:55:03;;;;;;;24.30;13.98;;;18.00;91.10;;;;;;5081220;28;20039;-73
2021/09/17 07:57:29;;;;;;;19.60;12.35;;;18.10;91.40;;;;;;5080083;28;20087;-73
2021/09/17 07:59:55;;;;;;;17.15;12.00;;;18.10;91.50;;;;;;5084356;28;20032;-73
2021/09/17 08:02:20;;;;;;;17.77;11.23;;;18.20;91.60;;;;;;5084634;28;20037;-73
2021/09/17 08:04:46;;;;;;;19.00;11.23;;;18.20;91.60;;;;;;5086109;28;20024;-73
2021/09/17 08:07:12;;;;;;;18.35;10.05;;;18.40;91.70;;;;;;5086138;28;20037;-73
2021/09/17 08:09:37;;;;;;;16.83;8.82;;;18.30;91.80;;;;;;5082584;28;20036;-73
2021/09/17 08:12:04;;;;;;;14.50;8.05;;;18.50;91.90;;;;;;5077381;28;20044;-73
2021/09/17 08:14:29;;;;;;;17.33;9.30;;;18.50;92.00;;;;;;5076765;28;20108;-73
2021/09/17 08:16:55;;;;;;;12.07;7.38;;;18.50;92.20;;;;;;5080831;28;20102;-73
2021/09/17 08:19:21;;;;;;;9.63;5.72;;;18.60;92.30;;;;;;5083537;28;20027;-73
2021/09/17 08:21:47;;;;;;;10.45;5.20;;;18.70;92.20;;;;;;5079332;28;20020;-73
2021/09/17 08:24:16;;;;;;;12.90;5.32;;;18.70;92.00;;;;;;5077307;28;20109;-73
2021/09/17 08:26:46;;;;;;;8.40;3.60;;;18.80;91.80;;;;;;5086620;28;20044;-73
2021/09/17 08:29:13;;;;;;;7.63;2.40;;;18.90;91.60;;;;;;5084720;28;20468;-81
2021/09/17 08:31:39;;;;;;;8.35;2.65;;;18.90;91.30;;;;;;5082900;28;20210;-77
2021/09/17 08:34:07;;;;;;;7.13;1.60;;;18.90;91.00;;;;;;5076813;28;20033;-77
2021/09/17 08:36:34;;;;;;;8.82;3.20;;;19.00;90.80;;;;;;5072508;28;20037;-77
2021/09/17 08:39:02;;;;;;;6.72;2.80;;;19.00;90.60;;;;;;5075480;28;20362;-76
2021/09/17 08:41:29;;;;;;;6.95;2.70;;;19.10;90.50;;;;;;5077860;28;20031;-76
2021/09/17 08:43:55;;;;;;;6.38;2.40;;;19.10;90.50;;;;;;5074464;28;20024;-76
2021/09/17 08:46:21;;;;;;;5.97;2.60;;;19.10;90.40;;;;;;5084206;28;20050;-78
2021/09/17 08:48:51;;;;;;;11.65;1.90;;;19.20;90.40;;;;;;5071231;28;20024;-80
2021/09/17 08:51:20;;;;;;;5.07;1.80;;;19.20;90.20;;;;;;5078272;28;20028;-78
2021/09/17 08:53:47;;;;;;;5.82;1.70;;;19.30;90.00;;;;;;5074365;28;20039;-79
2021/09/17 08:56:16;;;;;;;7.30;2.38;;;19.40;89.50;;;;;;5072386;28;20082;-78
2021/09/17 08:58:43;;;;;;;5.38;2.20;;;19.40;88.90;;;;;;5075128;28;20040;-79
2021/09/17 09:01:35;;;;;;;5.60;1.70;;;19.40;88.70;;;;;;5074208;28;20036;-79
2021/09/17 09:04:03;;;;;;;9.10;2.47;;;19.50;88.40;;;;;;5075957;28;20107;-79
2021/09/17 09:06:39;;;;;;;7.13;1.70;;;19.50;88.00;;;;;;5072768;28;20044;-79
2021/09/17 09:09:17;;;;;;;6.22;2.70;;;19.60;87.60;;;;;;5076859;28;20099;-78
2021/09/17 09:11:46;;;;;;;7.90;2.40;;;19.60;87.10;;;;;;5074887;28;20123;-79
2021/09/17 09:14:13;;;;;;;6.65;1.83;;;19.60;87.00;;;;;;5074112;28;20038;-78
2021/09/17 09:16:48;;;;;;;4.18;2.22;;;19.60;86.70;;;;;;5076433;28;20036;-79
2021/09/17 09:19:18;;;;;;;12.60;4.70;;;19.70;86.60;;;;;;5077678;28;20032;-80
2021/09/17 09:21:44;;;;;;;3.65;1.80;;;19.70;86.70;;;;;;5073727;28;20357;-78
2021/09/17 09:24:13;;;;;;;4.95;1.90;;;19.80;86.20;;;;;;5072602;28;20043;-78
2021/09/17 09:26:39;;;;;;;3.78;1.50;;;19.80;85.50;;;;;;5082418;28;20136;-78
2021/09/17 09:29:05;;;;;;;2.40;1.33;;;19.80;85.10;;;;;;5076678;28;20028;-78
2021/09/17 09:31:42;;;;;;;4.15;1.58;;;19.90;84.80;;;;;;5076067;28;20037;-79
2021/09/17 09:34:09;;;;;;;2.20;1.50;;;19.90;84.70;;;;;;5075777;28;20020;-78
2021/09/17 09:36:35;;;;;;;3.47;1.27;;;19.90;84.20;;;;;;5075929;28;20044;-78
2021/09/17 09:39:05;;;;;;;4.40;1.40;;;19.90;84.30;;;;;;5078114;28;20024;-78
2021/09/17 09:41:35;;;;;;;2.00;0.93;;;20.00;84.20;;;;;;5079747;28;20060;-79
2021/09/17 09:44:05;;;;;;;3.55;0.88;;;20.00;84.20;;;;;;5090261;28;20032;-79
2021/09/17 09:46:35;;;;;;;2.65;0.73;;;20.00;83.90;;;;;;5080122;28;20432;-80
2021/09/17 09:49:26;;;;;;;2.83;1.00;;;20.10;83.80;;;;;;5087937;28;20032;-79
2021/09/17 09:52:09;;;;;;;1.38;1.10;;;20.10;83.70;;;;;;5077664;28;20032;-80
2021/09/17 09:54:36;;;;;;;5.53;1.00;;;20.10;83.60;;;;;;5072711;28;20032;-81
2021/09/17 09:57:04;;;;;;;3.08;1.00;;;20.10;83.20;;;;;;5075028;28;20032;-81
2021/09/17 09:59:32;;;;;;;2.70;0.73;;;20.10;83.00;;;;;;5085602;28;20115;-80
2021/09/17 10:02:00;;;;;;;5.70;1.30;;;20.10;82.70;;;;;;5073307;28;20033;-73
2021/09/17 10:04:28;;;;;;;5.00;1.92;;;20.20;82.70;;;;;;5075145;28;20497;-74
2021/09/17 10:07:08;;;;;;;4.40;1.15;;;20.20;82.40;;;;;;5090287;28;20028;-76
2021/09/17 10:09:38;;;;;;;3.97;1.20;;;20.20;82.00;;;;;;5082897;28;20033;-73
2021/09/17 10:12:12;;;;;;;1.05;0.82;;;20.20;81.70;;;;;;5090711;28;20032;-73
2021/09/17 10:14:41;;;;;;;0.75;0.60;;;20.30;81.30;;;;;;5078741;28;20033;-73
2021/09/17 10:17:11;;;;;;;1.98;0.80;;;20.30;81.30;;;;;;5076033;28;20039;-73
2021/09/17 10:19:37;;;;;;;4.30;1.38;;;20.30;81.30;;;;;;5076298;28;20471;-73
2021/09/17 10:22:04;;;;;;;2.88;0.80;;;20.30;81.10;;;;;;5077827;28;20483;-73
2021/09/17 10:24:33;;;;;;;5.80;1.02;;;20.40;81.00;;;;;;5076865;28;20036;-73
2021/09/17 10:27:04;;;;;;;1.98;0.75;;;20.40;81.00;;;;;;5081241;28;20041;-73
2021/09/17 10:29:36;;;;;;;0.75;0.60;;;20.40;80.80;;;;;;5077849;28;20037;-73
2021/09/17 10:32:04;;;;;;;5.50;0.80;;;20.50;80.60;;;;;;5074983;28;20025;-74
2021/09/17 10:34:43;;;;;;;3.92;1.20;;;20.50;80.60;;;;;;5079658;28;20043;-74
2021/09/17 10:37:10;;;;;;;2.65;0.68;;;20.50;80.30;;;;;;5076145;28;20797;-73
2021/09/17 10:39:37;;;;;;;7.82;1.55;;;20.60;80.30;;;;;;5076490;28;20024;-74
2021/09/17 10:42:13;;;;;;;4.07;1.00;;;20.60;80.20;;;;;;5077991;28;20494;-74
2021/09/17 10:45:02;;;;;;;3.15;0.90;;;20.60;79.60;;;;;;5076196;28;20518;-73
2021/09/17 10:47:42;;;;;;;5.15;1.00;;;20.70;79.50;;;;;;5073309;28;20048;-73
2021/09/17 10:50:10;;;;;;;2.25;1.00;;;20.70;79.30;;;;;;5077298;28;20037;-74
2021/09/17 10:52:44;;;;;;;6.25;0.90;;;20.80;79.30;;;;;;5077036;28;20100;-74
2021/09/17 10:55:44;;;;;;;4.03;0.80;;;20.80;79.10;;;;;;5079729;28;20028;-74
2021/09/17 10:58:28;;;;;;;3.40;0.93;;;20.80;79.20;;;;;;5076270;28;20365;-74
2021/09/17 11:00:54;;;;;;;;;;;20.80;78.80;;;;;;5075160;28;20037;-73
2021/09/17 11:03:38;;;;;;;4.10;0.80;;;20.80;79.00;;;;;;5079406;28;20313;-74
2021/09/17 11:06:31;;;;;;;4.82;1.60;;;20.90;78.60;;;;;;5078379;28;20045;-73
2021/09/17 11:09:04;;;;;;;3.67;1.55;;;20.90;78.60;;;;;;5076833;28;20103;-73
2021/09/17 11:11:49;;;;;;;5.05;2.20;;;21.00;77.70;;;;;;5078033;28;20111;-73
2021/09/17 11:14:18;;;;;;;3.40;1.20;;;21.00;77.50;;;;;;5075334;28;20036;-74
2021/09/17 11:16:52;;;;;;;2.63;1.02;;;21.10;77.50;;;;;;5073714;28;20487;-79
2021/09/17 11:19:19;;;;;;;2.15;0.95;;;21.10;76.70;;;;;;5089394;28;20081;-74
2021/09/17 11:21:48;;;;;;;4.38;1.83;;;21.10;76.40;;;;;;5088469;28;20025;-72
2021/09/17 11:24:16;;;;;;;4.70;1.42;;;21.20;76.30;;;;;;5083988;28;20352;-72
2021/09/17 11:26:47;;;;;;;4.40;1.27;;;21.20;76.00;;;;;;5087414;28;20126;-72
2021/09/17 11:29:15;;;;;;;1.60;1.00;;;21.20;75.80;;;;;;5075092;28;20060;-72
2021/09/17 11:31:43;;;;;;;4.32;1.20;;;21.30;75.90;;;;;;5080485;28;20036;-72
2021/09/17 11:34:11;;;;;;;4.00;1.40;;;21.30;75.90;;;;;;5092449;28;20032;-72
2021/09/17 11:36:43;;;;;;;1.40;0.80;;;21.30;75.00;;;;;;5093877;28;20052;-72
2021/09/17 11:39:20;;;;;;;1.27;0.82;;;21.30;74.90;;;;;;5080136;28;20057;-72
2021/09/17 11:41:53;;;;;;;2.17;0.82;;;21.40;75.00;;;;;;5080257;28;20033;-72
2021/09/17 11:44:38;;;;;;;5.38;1.30;;;21.40;74.90;;;;;;5087585;28;20028;-72
2021/09/17 11:47:06;;;;;;;5.00;1.10;;;21.50;75.00;;;;;;5084825;28;20040;-72
2021/09/17 11:49:35;;;;;;;3.22;1.20;;;21.50;75.00;;;;;;5077038;28;20075;-72
2021/09/17 11:52:09;;;;;;;4.55;1.30;;;21.60;75.00;;;;;;5081596;28;20513;-72
2021/09/17 11:54:35;;;;;;;4.47;1.10;;;21.60;74.50;;;;;;5074432;28;20029;-72
2021/09/17 11:57:11;;;;;;;3.17;0.93;;;21.70;74.90;;;;;;5085401;28;20021;-72
2021/09/17 11:59:44;;;;;;;4.18;1.30;;;21.70;74.50;;;;;;5075345;28;20036;-77
2021/09/17 12:02:26;;;;;;;3.03;1.02;;;21.80;73.80;;;;;;5079652;28;20024;-76
2021/09/17 12:05:03;;;;;;;6.45;1.20;;;21.80;73.30;;;;;;5085813;28;20036;-76
2021/09/17 12:07:31;;;;;;;4.28;1.20;;;21.80;73.20;;;;;;5076804;28;20041;-71
2021/09/17 12:09:57;;;;;;;2.35;1.30;;;21.90;73.50;;;;;;5074032;28;20032;-71
2021/09/17 12:12:33;;;;;;;4.32;1.02;;;21.90;73.10;;;;;;5071772;28;20111;-71
2021/09/17 12:14:59;;;;;;;5.55;1.00;;;21.90;72.30;;;;;;5073224;28;20024;-71
2021/09/17 12:17:24;;;;;;;5.85;0.90;;;21.90;72.20;;;;;;5073601;28;20093;-71
2021/09/17 12:20:01;;;;;;;3.53;1.02;;;21.90;72.30;;;;;;5087769;28;20028;-71
2021/09/17 12:22:39;;;;;;;3.75;1.10;;;21.90;71.60;;;;;;5078948;28;20028;-71
2021/09/17 12:25:31;;;;;;;2.70;1.25;;;22.00;72.30;;;;;;5082438;28;20089;-71
2021/09/17 12:28:05;;;;;;;2.22;0.93;;;22.00;72.50;;;;;;5081146;28;20040;-71
2021/09/17 12:30:32;;;;;;;1.55;1.02;;;22.00;72.30;;;;;;5079203;28;20380;-71
2021/09/17 12:33:18;;;;;;;4.13;1.20;;;21.90;72.50;;;;;;5081974;28;20036;-71
2021/09/17 12:35:47;;;;;;;3.35;1.20;;;22.00;72.10;;;;;;5077601;28;20379;-72
2021/09/17 12:38:15;;;;;;;3.80;1.17;;;22.00;72.00;;;;;;5082567;28;20501;-72